Time;durP1;ratioP1;P1;durP2;ratioP2;P2;SDS_P1;SDS_P2;PMS_P1;PMS_P2;Temp;Humidity;BMP_temperature;BMP_pressure;BME280_temperature;BME280_humidity;BME280_pressure;Samples;Min_cycle;Max_cycle;Signal;HPM_P1;HPM_P2
2022/10/26 00:02:14;;;;;;;20.23;12.18;;;;;;;11.74;77.99;98843.19;5074877;28;20020;-70
2022/10/26 00:04:39;;;;;;;20.63;11.80;;;;;;;11.77;77.81;98845.34;5072546;28;20024;-70
2022/10/26 00:07:05;;;;;;;19.00;12.38;;;;;;;11.79;78.12;98839.53;5072716;28;20021;-70
2022/10/26 00:09:30;;;;;;;20.70;13.90;;;;;;;11.81;77.52;98842.00;5072080;28;20021;-70
2022/10/26 00:11:55;;;;;;;19.65;13.88;;;;;;;11.80;78.41;98843.91;5071085;28;20028;-70
2022/10/26 00:14:21;;;;;;;18.00;12.35;;;;;;;11.80;77.41;98846.66;5072803;28;20103;-70
2022/10/26 00:16:47;;;;;;;16.67;10.75;;;;;;;11.79;77.74;98845.03;5079733;28;20036;-70
2022/10/26 00:19:12;;;;;;;17.00;10.05;;;;;;;11.79;78.09;98849.72;5090550;28;20036;-70
2022/10/26 00:21:38;;;;;;;16.63;9.38;;;;;;;11.79;77.37;98850.53;5090397;28;20127;-71
2022/10/26 00:24:03;;;;;;;20.67;12.55;;;;;;;11.79;78.17;98853.28;5090281;28;20024;-70
2022/10/26 00:26:29;;;;;;;17.48;11.23;;;;;;;11.76;77.96;98851.13;5083765;28;20048;-71
2022/10/26 00:28:55;;;;;;;18.98;11.40;;;;;;;11.76;77.98;98851.13;5071576;28;20035;-71
2022/10/26 00:31:21;;;;;;;18.67;11.15;;;;;;;11.79;77.94;98846.97;5087409;28;20074;-72
2022/10/26 00:33:46;;;;;;;19.48;12.93;;;;;;;11.81;77.96;98855.75;5090332;28;20040;-72
2022/10/26 00:36:15;;;;;;;20.17;12.48;;;;;;;11.82;77.65;98849.94;5089712;28;20023;-72
2022/10/26 00:38:44;;;;;;;18.38;12.35;;;;;;;11.85;78.14;98856.75;5090209;28;20031;-72
2022/10/26 00:41:31;;;;;;;18.70;11.20;;;;;;;11.86;77.80;98844.66;5066869;28;20029;-72
2022/10/26 00:43:57;;;;;;;16.35;11.32;;;;;;;11.89;77.85;98852.31;5069899;28;20115;-72
2022/10/26 00:46:23;;;;;;;15.85;9.07;;;;;;;11.90;77.69;98857.53;5051973;28;20035;-72
2022/10/26 00:48:55;;;;;;;16.58;8.73;;;;;;;11.91;77.82;98858.34;5069850;28;20048;-72
2022/10/26 00:51:35;;;;;;;13.50;9.05;;;;;;;11.93;78.03;98853.38;5069789;28;20115;-72
2022/10/26 00:54:04;;;;;;;13.15;8.70;;;;;;;11.93;77.84;98858.06;5069807;28;20056;-72
2022/10/26 00:56:31;;;;;;;14.25;9.20;;;;;;;11.95;77.64;98853.88;5069769;28;20572;-72
2022/10/26 00:59:01;;;;;;;16.42;8.70;;;;;;;11.97;78.30;98848.91;5069665;28;20032;-72
2022/10/26 01:01:28;;;;;;;14.40;8.43;;;;;;;12.00;78.04;98853.06;5069572;28;20032;-72
2022/10/26 01:03:55;;;;;;;12.73;8.63;;;;;;;11.99;78.18;98849.47;5079669;28;20036;-72
2022/10/26 01:06:20;;;;;;;12.25;8.27;;;;;;;12.01;77.51;98849.19;5089973;28;20032;-73
2022/10/26 01:08:47;;;;;;;15.93;10.15;;;;;;;12.03;78.01;98846.94;5089566;28;20093;-72
2022/10/26 01:11:13;;;;;;;16.98;13.82;;;;;;;12.02;78.07;98843.38;5089744;28;20035;-72
2022/10/26 01:13:40;;;;;;;18.30;14.60;;;;;;;12.04;77.90;98848.56;5089954;28;20032;-73
2022/10/26 01:16:28;;;;;;;18.38;13.48;;;;;;;12.05;78.07;98847.44;5089790;28;20034;-73
2022/10/26 01:19:12;;;;;;;13.98;8.48;;;;;;;12.05;77.69;98847.44;5047727;28;20053;-72
2022/10/26 01:21:46;;;;;;;13.35;7.93;;;;;;;12.02;77.93;98845.31;5089412;28;20086;-73
2022/10/26 01:24:21;;;;;;;24.73;11.30;;;;;;;12.01;77.82;98843.69;5066070;28;20029;-73
2022/10/26 01:27:25;;;;;;;23.15;12.30;;;;;;;11.98;77.92;98849.75;5069134;28;20029;-72
2022/10/26 01:30:06;;;;;;;19.27;11.23;;;;;;;11.96;77.65;98846.47;5067552;28;20043;-72
2022/10/26 01:32:45;;;;;;;20.17;11.30;;;;;;;11.90;77.32;98841.03;5073243;28;20052;-72
2022/10/26 01:35:23;;;;;;;17.92;11.20;;;;;;;11.88;77.05;98846.00;5074427;28;20186;-71
2022/10/26 01:38:15;;;;;;;19.05;12.32;;;;;;;11.85;77.30;98846.59;5050629;28;20495;-72
2022/10/26 01:41:09;;;;;;;21.00;13.35;;;;;;;11.85;77.74;98849.34;5089128;28;20084;-72
2022/10/26 01:43:39;;;;;;;19.83;13.90;;;;;;;11.84;77.95;98855.13;5052551;28;20036;-72
2022/10/26 01:46:06;;;;;;;19.75;13.07;;;;;;;11.82;77.38;98851.88;5089496;28;20056;-73
2022/10/26 01:48:33;;;;;;;19.45;13.52;;;;;;;11.78;77.46;98846.16;5093769;28;20024;-72
2022/10/26 01:51:01;;;;;;;19.38;13.50;;;;;;;11.79;77.50;98853.28;5086919;28;20024;-71
2022/10/26 01:53:27;;;;;;;17.50;12.45;;;;;;;11.80;77.73;98843.91;5075425;28;20047;-72
2022/10/26 01:55:54;;;;;;;17.67;12.98;;;;;;;11.83;77.62;98854.31;5073920;28;20547;-72
2022/10/26 01:58:20;;;;;;;20.00;13.73;;;;;;;11.84;77.57;98847.72;5075862;28;20044;-72
2022/10/26 02:01:04;;;;;;;19.63;13.57;;;;;;;11.84;77.32;98841.38;5052850;28;20052;-72
2022/10/26 02:03:58;;;;;;;19.58;12.05;;;;;;;11.83;77.58;98842.50;5071193;28;20029;-72
2022/10/26 02:06:48;;;;;;;22.05;12.20;;;;;;;11.83;77.94;98850.75;5029766;28;20044;-72
2022/10/26 02:09:36;;;;;;;19.75;12.85;;;;;;;11.79;77.67;98842.28;5054849;28;20078;-71
2022/10/26 02:12:10;;;;;;;21.25;13.70;;;;;;;11.76;77.48;98843.69;5072745;28;20078;-72
2022/10/26 02:14:58;;;;;;;21.77;13.57;;;;;;;11.74;77.80;98836.84;5054551;28;20386;-72
2022/10/26 02:17:28;;;;;;;21.48;12.75;;;;;;;11.74;77.40;98842.34;5072852;28;20039;-71
2022/10/26 02:20:00;;;;;;;21.75;13.23;;;;;;;11.74;77.46;98847.84;5073027;28;20033;-72
2022/10/26 02:22:32;;;;;;;25.30;14.18;;;;;;;11.73;78.10;98841.53;5070487;28;20040;-72
2022/10/26 02:24:59;;;;;;;21.50;13.23;;;;;;;11.73;77.67;98841.53;5072494;28;20021;-72
2022/10/26 02:27:30;;;;;;;20.35;14.30;;;;;;;11.72;78.08;98842.66;5070217;28;20032;-72
2022/10/26 02:29:57;;;;;;;31.85;18.73;;;;;;;11.72;77.95;98852.81;5070395;28;20033;-72
2022/10/26 02:32:26;;;;;;;26.50;16.55;;;;;;;11.71;77.64;98841.03;5070218;28;20075;-72
2022/10/26 02:34:55;;;;;;;29.38;16.50;;;;;;;11.73;77.45;98840.72;5069687;28;20132;-72
2022/10/26 02:37:25;;;;;;;24.10;14.63;;;;;;;11.74;78.18;98845.09;5068992;28;20090;-72
2022/10/26 02:39:53;;;;;;;21.42;14.05;;;;;;;11.73;77.98;98836.03;5072882;28;20047;-73
2022/10/26 02:42:20;;;;;;;21.58;13.50;;;;;;;11.72;78.23;98839.91;5069062;28;20470;-73
2022/10/26 02:45:09;;;;;;;23.63;14.18;;;;;;;11.70;77.78;98841.28;5070752;28;20031;-71
2022/10/26 02:47:35;;;;;;;18.40;13.85;;;;;;;11.70;77.49;98849.53;5067387;28;20038;-72
2022/10/26 02:50:01;;;;;;;20.30;12.95;;;;;;;11.68;77.95;98847.09;5071859;28;20440;-72
2022/10/26 02:52:37;;;;;;;21.42;13.07;;;;;;;11.64;77.52;98847.97;5066532;28;20040;-72
2022/10/26 02:55:10;;;;;;;18.98;11.63;;;;;;;11.61;77.34;98850.19;5067656;28;20031;-72
2022/10/26 02:57:42;;;;;;;18.38;11.55;;;;;;;11.60;77.80;98855.97;5091556;28;20777;-72
2022/10/26 03:00:11;;;;;;;18.10;10.90;;;;;;;11.58;77.37;98850.81;5075597;28;20034;-72
2022/10/26 03:02:37;;;;;;;15.32;10.93;;;;;;;11.52;77.39;98851.97;5069235;28;20040;-72
2022/10/26 03:05:14;;;;;;;17.33;10.85;;;;;;;11.46;77.26;98853.13;5069483;28;20032;-72
2022/10/26 03:07:39;;;;;;;17.25;10.70;;;;;;;11.43;77.48;98849.03;5092409;28;20133;-72
2022/10/26 03:10:05;;;;;;;18.05;10.82;;;;;;;11.40;77.59;98848.81;5091859;28;20107;-72
2022/10/26 03:12:31;;;;;;;18.02;12.15;;;;;;;11.39;77.65;98849.91;5092211;28;20032;-72
2022/10/26 03:14:56;;;;;;;19.00;11.48;;;;;;;11.34;77.66;98853.53;5091737;28;20587;-72
2022/10/26 03:17:22;;;;;;;15.68;11.18;;;;;;;11.31;77.29;98857.69;5091900;28;20016;-72
2022/10/26 03:19:47;;;;;;;18.58;11.20;;;;;;;11.28;77.77;98855.50;5091622;28;20028;-72
2022/10/26 03:22:12;;;;;;;15.00;10.55;;;;;;;11.26;77.32;98851.44;5091723;28;20039;-72
2022/10/26 03:24:38;;;;;;;16.08;10.85;;;;;;;11.23;77.39;98857.50;5073687;28;20077;-73
2022/10/26 03:27:03;;;;;;;24.73;15.90;;;;;;;11.18;76.96;98855.63;5091592;28;20032;-72
2022/10/26 03:29:28;;;;;;;18.88;13.45;;;;;;;11.13;76.82;98853.75;5073675;28;20024;-72
2022/10/26 03:31:54;;;;;;;20.83;14.32;;;;;;;11.08;77.53;98853.00;5070733;28;20123;-72
2022/10/26 03:34:20;;;;;;;20.55;14.57;;;;;;;11.02;77.03;98852.19;5069333;28;20532;-73
2022/10/26 03:36:45;;;;;;;22.33;14.45;;;;;;;10.98;77.56;98846.50;5071502;28;20032;-72
2022/10/26 03:39:11;;;;;;;19.25;12.85;;;;;;;10.94;77.21;98856.41;5071213;28;20052;-72
2022/10/26 03:41:37;;;;;;;22.20;13.52;;;;;;;10.89;76.83;98859.19;5070771;28;20484;-72
2022/10/26 03:44:02;;;;;;;18.42;12.60;;;;;;;10.83;76.74;98861.16;5071813;28;20058;-72
2022/10/26 03:46:27;;;;;;;22.10;13.05;;;;;;;10.79;77.43;98859.31;5071475;28;20062;-72
2022/10/26 03:48:53;;;;;;;18.65;12.82;;;;;;;10.75;76.92;98860.97;5071442;28;20426;-72
2022/10/26 03:51:18;;;;;;;21.73;15.40;;;;;;;10.70;77.23;98870.06;5070915;28;20029;-72
2022/10/26 03:53:44;;;;;;;21.48;13.55;;;;;;;10.68;76.68;98864.03;5071251;28;20347;-72
2022/10/26 03:56:09;;;;;;;17.58;13.02;;;;;;;10.65;77.13;98868.19;5071499;28;20096;-72
2022/10/26 03:58:34;;;;;;;19.30;12.73;;;;;;;10.64;76.78;98869.28;5071301;28;20112;-72
2022/10/26 04:01:00;;;;;;;18.52;11.90;;;;;;;10.60;76.99;98873.72;5070781;28;20016;-72
2022/10/26 04:03:25;;;;;;;17.55;11.52;;;;;;;10.57;77.43;98877.03;5071523;28;20028;-72
2022/10/26 04:05:51;;;;;;;16.15;11.60;;;;;;;10.54;77.40;98877.59;5071500;28;20060;-72
2022/10/26 04:08:16;;;;;;;17.20;11.13;;;;;;;10.51;77.43;98870.75;5084692;28;20016;-72
2022/10/26 04:10:44;;;;;;;18.65;11.63;;;;;;;10.51;77.22;98876.25;5090490;28;20024;-72
2022/10/26 04:13:10;;;;;;;17.08;10.93;;;;;;;10.51;76.80;98880.91;5091468;28;20111;-72
2022/10/26 04:15:36;;;;;;;15.68;11.13;;;;;;;10.51;77.50;98880.91;5082000;28;20020;-72
2022/10/26 04:18:02;;;;;;;16.08;10.85;;;;;;;10.48;77.73;98879.56;5073124;28;20071;-72
2022/10/26 04:20:29;;;;;;;14.25;10.40;;;;;;;10.49;77.53;98885.84;5084492;28;20023;-72
2022/10/26 04:22:58;;;;;;;15.15;10.35;;;;;;;10.45;77.40;98882.03;5077666;28;20035;-72
2022/10/26 04:25:23;;;;;;;15.88;9.85;;;;;;;10.41;77.54;98881.81;5090163;28;20216;-71
2022/10/26 04:27:49;;;;;;;16.88;9.80;;;;;;;10.36;77.29;98888.13;5087214;28;20486;-71
2022/10/26 04:30:14;;;;;;;16.73;11.05;;;;;;;10.32;77.36;98883.47;5060550;28;20107;-72
2022/10/26 04:32:39;;;;;;;16.50;10.27;;;;;;;10.30;76.97;98878.28;5090691;28;20044;-72
2022/10/26 04:35:05;;;;;;;13.63;9.73;;;;;;;10.27;76.88;98879.66;5081325;28;20048;-72
2022/10/26 04:37:30;;;;;;;15.15;10.70;;;;;;;10.26;77.34;98880.75;5070769;28;20020;-72
2022/10/26 04:39:56;;;;;;;14.77;9.63;;;;;;;10.25;77.06;98881.84;5070393;28;20085;-72
2022/10/26 04:42:21;;;;;;;14.75;9.40;;;;;;;10.23;77.16;98880.50;5070335;28;20032;-71
2022/10/26 04:44:46;;;;;;;12.13;9.38;;;;;;;10.20;76.93;98881.09;5070769;28;20024;-72
2022/10/26 04:47:11;;;;;;;14.48;10.45;;;;;;;10.17;76.83;98879.75;5070413;28;20497;-72
2022/10/26 04:49:37;;;;;;;15.50;10.10;;;;;;;10.15;77.19;98878.38;5070701;28;20490;-73
2022/10/26 04:52:04;;;;;;;17.15;11.15;;;;;;;10.12;77.40;98877.03;5077632;28;20036;-73
2022/10/26 04:54:30;;;;;;;16.85;10.68;;;;;;;10.11;77.67;98878.13;5090153;28;20050;-73
2022/10/26 04:56:55;;;;;;;14.55;10.30;;;;;;;10.08;77.19;98875.94;5090646;28;20032;-73
2022/10/26 04:59:20;;;;;;;17.33;11.23;;;;;;;10.07;77.19;98877.06;5090578;28;20165;-75
2022/10/26 05:01:46;;;;;;;17.33;11.10;;;;;;;10.02;77.39;98874.34;5071980;28;20042;-73
2022/10/26 05:04:11;;;;;;;15.27;10.90;;;;;;;10.00;77.11;98873.78;5090464;28;20024;-73
2022/10/26 05:06:37;;;;;;;13.50;10.57;;;;;;;9.97;76.61;98872.44;5090558;28;20028;-73
2022/10/26 05:09:03;;;;;;;15.82;10.57;;;;;;;9.95;77.64;98869.16;5090542;28;20039;-74
2022/10/26 05:11:28;;;;;;;16.95;11.48;;;;;;;9.95;77.72;98867.25;5090311;28;20035;-71
2022/10/26 05:13:53;;;;;;;18.55;12.50;;;;;;;9.94;77.42;98870.28;5090089;28;20402;-71
2022/10/26 05:16:19;;;;;;;16.17;11.63;;;;;;;9.92;77.26;98867.78;5090539;28;20099;-70
2022/10/26 05:18:48;;;;;;;15.90;10.38;;;;;;;9.92;76.81;98880.69;5090246;28;20016;-71
2022/10/26 05:21:18;;;;;;;15.75;10.65;;;;;;;9.90;76.84;98875.47;5089839;28;20047;-71
2022/10/26 05:23:47;;;;;;;16.10;10.00;;;;;;;9.90;77.88;98878.22;5066378;28;20591;-71
2022/10/26 05:26:13;;;;;;;14.20;9.57;;;;;;;9.90;77.84;98874.69;5052265;28;20517;-71
2022/10/26 05:28:38;;;;;;;13.85;9.43;;;;;;;9.94;77.87;98881.22;5074340;28;20095;-71
2022/10/26 05:31:04;;;;;;;13.85;9.32;;;;;;;9.92;77.30;98880.69;5089827;28;20074;-71
2022/10/26 05:33:29;;;;;;;13.30;9.30;;;;;;;9.92;77.22;98881.50;5089417;28;20066;-71
2022/10/26 05:35:54;;;;;;;11.63;9.23;;;;;;;9.93;76.93;98887.81;5090254;28;20028;-71
2022/10/26 05:38:20;;;;;;;12.90;8.57;;;;;;;9.93;77.27;98890.56;5089993;28;20514;-70
2022/10/26 05:40:49;;;;;;;10.90;8.48;;;;;;;9.91;77.58;98887.28;5072083;28;20029;-71
2022/10/26 05:43:15;;;;;;;12.43;8.85;;;;;;;9.88;77.51;98891.38;5071594;28;20110;-71
2022/10/26 05:45:40;;;;;;;10.68;8.77;;;;;;;9.87;77.12;98894.41;5090112;28;20673;-72
2022/10/26 05:48:06;;;;;;;10.55;7.90;;;;;;;9.84;77.11;98890.28;5090117;28;20497;-71
2022/10/26 05:50:31;;;;;;;11.02;8.50;;;;;;;9.84;77.18;98890.28;5090037;28;20024;-71
2022/10/26 05:52:57;;;;;;;11.60;8.82;;;;;;;9.81;77.47;98890.84;5090621;28;20024;-72
2022/10/26 05:55:22;;;;;;;11.55;8.85;;;;;;;9.80;77.43;98891.94;5089488;28;20024;-72
2022/10/26 05:57:48;;;;;;;11.45;8.95;;;;;;;9.79;77.19;98890.31;5090224;28;20032;-72
2022/10/26 06:00:17;;;;;;;13.02;9.27;;;;;;;9.77;77.48;98898.81;5090282;28;20031;-72
2022/10/26 06:02:45;;;;;;;15.02;10.30;;;;;;;9.78;76.88;98899.66;5090147;28;20039;-72
2022/10/26 06:05:21;;;;;;;13.25;9.75;;;;;;;9.77;77.32;98908.97;5090025;28;20042;-71
2022/10/26 06:07:46;;;;;;;12.35;8.68;;;;;;;9.78;77.04;98908.69;5090245;28;20142;-71
2022/10/26 06:10:12;;;;;;;13.98;8.60;;;;;;;9.84;77.23;98914.94;5090211;28;20039;-72
2022/10/26 06:12:38;;;;;;;13.93;8.70;;;;;;;9.88;77.30;98918.78;5072237;28;20024;-72
2022/10/26 06:15:04;;;;;;;13.70;9.00;;;;;;;9.92;77.53;98921.78;5089595;28;20388;-71
2022/10/26 06:17:52;;;;;;;14.82;9.00;;;;;;;9.95;77.63;98913.81;5089860;28;20035;-71
2022/10/26 06:20:33;;;;;;;12.85;8.07;;;;;;;10.00;77.79;98920.38;5089653;28;20026;-71
2022/10/26 06:23:00;;;;;;;14.45;8.13;;;;;;;10.03;77.82;98917.88;5090141;28;20036;-71
2022/10/26 06:25:47;;;;;;;11.80;8.45;;;;;;;10.04;78.36;98927.75;5089744;28;20062;-72
2022/10/26 06:28:37;;;;;;;12.18;8.57;;;;;;;10.05;77.92;98928.56;5082832;28;20532;-72
2022/10/26 06:31:03;;;;;;;11.50;8.60;;;;;;;10.07;78.68;98931.84;5069240;28;20086;-73
2022/10/26 06:33:29;;;;;;;15.95;9.45;;;;;;;10.08;78.11;98931.56;5069697;28;20052;-73
2022/10/26 06:36:19;;;;;;;13.38;8.70;;;;;;;10.10;77.96;98934.03;5072152;28;20032;-73
2022/10/26 06:38:47;;;;;;;10.90;8.40;;;;;;;10.15;78.26;98933.19;5073244;28;20086;-73
2022/10/26 06:41:15;;;;;;;14.02;8.98;;;;;;;10.16;77.85;98937.56;5070651;28;20086;-73
2022/10/26 06:43:41;;;;;;;13.25;8.93;;;;;;;10.19;78.14;98942.50;5070146;28;20106;-74
2022/10/26 06:46:21;;;;;;;14.48;9.10;;;;;;;10.22;78.89;98940.00;5072598;28;20482;-72
2022/10/26 06:49:23;;;;;;;12.48;9.35;;;;;;;10.25;78.60;98939.44;5072531;28;20069;-72
2022/10/26 06:51:57;;;;;;;14.32;8.90;;;;;;;10.32;78.60;98941.88;5072734;28;20078;-72
2022/10/26 06:54:31;;;;;;;13.55;8.57;;;;;;;10.36;78.47;98953.91;5072549;28;20034;-73
2022/10/26 06:56:59;;;;;;;13.65;9.30;;;;;;;10.43;79.03;98948.94;5073040;28;20043;-73
2022/10/26 06:59:34;;;;;;;16.25;10.35;;;;;;;10.47;79.39;98949.22;5072744;28;20020;-73
2022/10/26 07:01:59;;;;;;;13.88;9.25;;;;;;;10.51;79.09;98953.03;5087886;28;20036;-73
2022/10/26 07:04:24;;;;;;;14.13;9.98;;;;;;;10.54;79.23;98951.63;5092312;28;20016;-73
2022/10/26 07:06:50;;;;;;;14.98;9.90;;;;;;;10.53;79.29;98953.56;5086318;28;20367;-73
2022/10/26 07:09:15;;;;;;;12.63;8.90;;;;;;;10.57;78.73;98946.44;5068743;28;20086;-72
2022/10/26 07:11:40;;;;;;;14.02;9.23;;;;;;;10.61;78.86;98949.41;5089214;28;20058;-73
2022/10/26 07:14:06;;;;;;;15.70;9.90;;;;;;;10.65;79.11;98949.63;5074353;28;20066;-73
2022/10/26 07:16:31;;;;;;;17.30;8.90;;;;;;;10.71;79.61;98959.47;5092618;28;20031;-73
2022/10/26 07:18:57;;;;;;;12.60;8.65;;;;;;;10.75;79.25;98951.53;5092584;28;20135;-73
2022/10/26 07:21:22;;;;;;;14.57;8.95;;;;;;;10.77;79.21;98952.84;5092392;28;20032;-72
2022/10/26 07:23:47;;;;;;;14.98;8.88;;;;;;;10.80;78.95;98952.28;5079159;28;20444;-71
2022/10/26 07:26:13;;;;;;;16.00;9.45;;;;;;;10.87;79.62;98946.47;5072796;28;20056;-71
2022/10/26 07:28:38;;;;;;;16.15;9.25;;;;;;;10.92;78.94;98954.66;5073734;28;20078;-71
2022/10/26 07:31:04;;;;;;;16.60;10.32;;;;;;;10.97;79.49;98957.38;5084277;28;20108;-73
2022/10/26 07:33:30;;;;;;;18.20;10.68;;;;;;;11.05;79.47;98955.94;5070503;28;20071;-72
2022/10/26 07:35:58;;;;;;;15.80;10.80;;;;;;;11.13;79.23;98960.00;5072200;28;20041;-72
2022/10/26 07:38:23;;;;;;;18.15;11.05;;;;;;;11.17;80.03;98963.81;5072739;28;20036;-72
2022/10/26 07:40:49;;;;;;;17.45;9.80;;;;;;;11.20;79.57;98971.47;5066639;28;20028;-70
2022/10/26 07:43:15;;;;;;;15.90;10.60;;;;;;;11.24;79.17;98966.22;5050675;28;20025;-72
2022/10/26 07:45:40;;;;;;;15.05;10.25;;;;;;;11.30;79.59;98971.38;5077665;28;20032;-74
2022/10/26 07:48:06;;;;;;;14.40;10.10;;;;;;;11.36;79.10;98974.06;5049722;28;20070;-74
2022/10/26 07:50:32;;;;;;;14.75;8.93;;;;;;;11.41;79.44;98966.59;5075310;28;20032;-74
2022/10/26 07:52:58;;;;;;;15.77;9.98;;;;;;;11.46;79.10;98969.28;5077668;28;20398;-71
2022/10/26 07:55:24;;;;;;;17.73;9.93;;;;;;;11.51;79.25;98968.44;5065048;28;20044;-72
2022/10/26 07:57:49;;;;;;;13.45;9.00;;;;;;;11.58;79.80;98965.34;5070871;28;20025;-73
2022/10/26 08:00:15;;;;;;;13.07;8.27;;;;;;;11.65;79.55;98974.06;5074452;28;20384;-71
2022/10/26 08:02:40;;;;;;;12.90;7.47;;;;;;;11.70;79.24;98976.75;5066478;28;20074;-73
2022/10/26 08:05:06;;;;;;;13.68;9.27;;;;;;;11.74;79.83;98974.25;5066537;28;20032;-73
2022/10/26 08:07:31;;;;;;;13.55;9.60;;;;;;;11.78;79.31;98964.31;5059859;28;20119;-74
2022/10/26 08:09:57;;;;;;;12.93;7.43;;;;;;;11.83;79.33;98963.41;5081068;28;20139;-72
2022/10/26 08:12:22;;;;;;;10.75;6.90;;;;;;;11.88;79.35;98966.13;5068552;28;20056;-73
2022/10/26 08:14:48;;;;;;;9.90;6.20;;;;;;;11.96;79.27;98956.41;5083217;28;20426;-72
2022/10/26 08:17:13;;;;;;;13.60;7.00;;;;;;;12.01;79.30;98959.16;5072455;28;20119;-72
2022/10/26 08:19:38;;;;;;;13.60;7.18;;;;;;;12.05;78.99;98955.50;5050461;28;20192;-72
2022/10/26 08:22:05;;;;;;;9.90;6.00;;;;;;;12.10;78.91;98962.84;5066412;28;20415;-73
2022/10/26 08:24:30;;;;;;;10.10;5.97;;;;;;;12.15;79.07;98956.50;5068320;28;20028;-73
2022/10/26 08:26:56;;;;;;;9.32;6.07;;;;;;;12.21;78.87;98955.31;5068654;28;20032;-70
2022/10/26 08:29:22;;;;;;;8.30;6.05;;;;;;;12.27;79.08;98956.06;5074677;28;20043;-75
2022/10/26 08:31:48;;;;;;;9.70;6.07;;;;;;;12.32;78.91;98951.31;5064139;28;20390;-75
2022/10/26 08:34:14;;;;;;;9.80;5.28;;;;;;;12.39;79.29;98950.97;5088083;28;20032;-75
2022/10/26 08:36:39;;;;;;;12.77;7.00;;;;;;;12.46;79.20;98947.81;5045166;28;20056;-77
2022/10/26 08:39:05;;;;;;;14.63;6.43;;;;;;;12.51;78.92;98951.31;5066977;28;20029;-74
2022/10/26 08:41:37;;;;;;;10.00;5.70;;;;;;;12.60;79.09;98968.00;5066715;28;20028;-75
2022/10/26 08:44:32;;;;;;;10.30;4.93;;;;;;;12.67;78.77;98959.34;5088086;28;20099;-75
2022/10/26 08:47:04;;;;;;;11.57;5.53;;;;;;;12.72;78.63;98948.28;5088807;28;20069;-76
2022/10/26 08:49:43;;;;;;;6.88;4.90;;;;;;;12.78;78.93;98955.34;5085185;28;20125;-76
2022/10/26 08:52:11;;;;;;;10.73;5.20;;;;;;;12.87;78.88;98960.97;5079755;28;20032;-76
2022/10/26 08:54:41;;;;;;;8.85;5.25;;;;;;;12.95;78.75;98954.81;5067814;28;20047;-75
2022/10/26 08:57:20;;;;;;;9.32;5.20;;;;;;;13.03;78.79;98947.78;5067066;28;21387;-74
2022/10/26 09:00:10;;;;;;;8.73;5.10;;;;;;;13.11;78.80;98951.78;5068183;28;20538;-73
2022/10/26 09:02:35;;;;;;;11.20;6.22;;;;;;;13.18;78.34;98957.72;5060604;28;20112;-76
2022/10/26 09:05:01;;;;;;;9.93;5.47;;;;;;;13.24;78.41;98955.72;5088742;28;20027;-75
2022/10/26 09:07:38;;;;;;;8.40;5.38;;;;;;;13.26;78.26;98953.44;5068286;28;20025;-75
2022/10/26 09:10:17;;;;;;;7.22;4.68;;;;;;;13.34;78.43;98951.97;5068424;28;20031;-74
2022/10/26 09:12:57;;;;;;;8.82;4.97;;;;;;;13.38;78.17;98959.31;5067169;28;20056;-79
2022/10/26 09:15:36;;;;;;;8.48;4.90;;;;;;;13.44;77.70;98960.09;5067865;28;20032;-74
2022/10/26 09:18:08;;;;;;;7.72;5.15;;;;;;;13.50;77.64;98955.28;5066236;28;20025;-76
2022/10/26 09:21:11;;;;;;;9.70;4.80;;;;;;;13.58;77.74;98959.28;5070278;28;20024;-75
2022/10/26 09:23:56;;;;;;;10.57;4.82;;;;;;;13.63;77.21;98960.00;5067848;28;21037;-76
2022/10/26 09:26:47;;;;;;;8.40;4.65;;;;;;;13.69;77.47;98969.00;5067807;28;20024;-75
2022/10/26 09:29:13;;;;;;;7.20;4.22;;;;;;;13.77;77.20;98972.97;5079153;28;20039;-74
2022/10/26 09:31:44;;;;;;;13.85;4.70;;;;;;;13.83;76.96;98964.31;5086355;28;20074;-75
2022/10/26 09:34:30;;;;;;;8.35;3.97;;;;;;;13.91;77.27;98970.22;5068564;28;20024;-74
2022/10/26 09:36:56;;;;;;;7.40;4.15;;;;;;;13.96;76.87;98981.97;5067897;28;20144;-73
2022/10/26 09:39:38;;;;;;;8.63;3.78;;;;;;;14.01;76.80;98977.50;5065136;28;20117;-75
2022/10/26 09:42:19;;;;;;;7.18;4.30;;;;;;;14.09;76.60;98974.81;5062050;28;20111;-75
2022/10/26 09:44:53;;;;;;;9.05;3.70;;;;;;;14.16;76.12;98985.44;5070120;28;20029;-76
2022/10/26 09:47:34;;;;;;;5.90;3.42;;;;;;;14.22;76.18;98981.47;5067924;28;20024;-75
2022/10/26 09:50:08;;;;;;;7.50;3.63;;;;;;;14.28;76.10;98974.72;5069445;28;20382;-75
2022/10/26 09:52:33;;;;;;;6.00;3.80;;;;;;;14.35;75.99;98973.47;5069638;28;20082;-75
2022/10/26 09:54:58;;;;;;;9.88;3.50;;;;;;;14.41;76.13;98980.53;5069462;28;20025;-75
2022/10/26 09:57:24;;;;;;;9.65;3.67;;;;;;;14.47;75.75;98968.22;5077939;28;20027;-74
2022/10/26 09:59:51;;;;;;;6.10;3.53;;;;;;;14.55;75.84;98973.03;5090174;28;20024;-75
2022/10/26 10:02:33;;;;;;;8.60;3.95;;;;;;;14.64;76.10;98966.78;5089752;28;20115;-76
2022/10/26 10:04:59;;;;;;;6.97;3.38;;;;;;;14.71;75.53;98965.25;5071636;28;20649;-75
2022/10/26 10:07:24;;;;;;;6.72;3.72;;;;;;;14.78;75.69;98964.81;5089573;28;20031;-75
2022/10/26 10:10:15;;;;;;;9.10;3.45;;;;;;;14.85;75.26;98969.91;5094150;28;20105;-75
2022/10/26 10:12:41;;;;;;;11.50;3.42;;;;;;;14.94;75.43;98967.22;5075445;28;20132;-75
2022/10/26 10:15:22;;;;;;;5.88;3.15;;;;;;;14.98;74.83;98977.34;5072453;28;20506;-75
2022/10/26 10:17:49;;;;;;;5.63;2.80;;;;;;;15.05;74.50;98971.38;5093789;28;20028;-74
2022/10/26 10:20:25;;;;;;;8.35;3.28;;;;;;;15.11;74.06;98974.81;5094041;28;20099;-75
2022/10/26 10:22:54;;;;;;;5.65;2.20;;;;;;;15.16;72.19;98977.44;5094135;28;20036;-76
2022/10/26 10:25:37;;;;;;;10.70;2.67;;;;;;;15.18;72.29;98976.03;5093201;28;20027;-75
2022/10/26 10:28:23;;;;;;;6.07;2.70;;;;;;;15.24;72.49;98973.13;5087802;28;20390;-75
2022/10/26 10:30:58;;;;;;;5.53;2.45;;;;;;;15.25;72.19;98972.81;5073633;28;20025;-75
2022/10/26 10:33:33;;;;;;;4.68;2.65;;;;;;;15.27;69.84;98978.03;5070644;28;20045;-76
2022/10/26 10:35:59;;;;;;;4.20;2.50;;;;;;;15.30;70.95;98977.38;5072608;28;20028;-75
2022/10/26 10:38:25;;;;;;;6.05;2.72;;;;;;;15.34;71.03;98972.84;5075889;28;20032;-74
2022/10/26 10:41:02;;;;;;;5.85;2.65;;;;;;;15.38;71.09;98964.75;5076890;28;20033;-74
2022/10/26 10:43:28;;;;;;;4.63;2.40;;;;;;;15.43;71.27;98970.97;5077182;28;20120;-73
2022/10/26 10:45:57;;;;;;;6.43;2.60;;;;;;;15.50;70.25;98975.22;5074568;28;20498;-74
2022/10/26 10:48:28;;;;;;;5.07;2.40;;;;;;;15.54;70.50;98963.22;5073719;28;20024;-75
2022/10/26 10:50:57;;;;;;;5.70;2.30;;;;;;;15.58;70.17;98966.97;5079900;28;20054;-76
2022/10/26 10:53:36;;;;;;;5.32;2.08;;;;;;;15.64;70.27;98967.69;5070157;28;20035;-74
2022/10/26 10:56:37;;;;;;;3.30;2.00;;;;;;;15.68;70.69;98974.22;5072919;28;20035;-76
2022/10/26 10:59:25;;;;;;;5.20;2.50;;;;;;;15.76;70.52;98978.13;5074532;28;20085;-75
2022/10/26 11:02:05;;;;;;;6.10;3.05;;;;;;;15.85;69.29;98962.41;5070701;28;20478;-74
2022/10/26 11:04:48;;;;;;;6.47;2.30;;;;;;;15.92;68.92;98971.06;5072726;28;20036;-75
2022/10/26 11:07:17;;;;;;;6.07;2.40;;;;;;;15.97;69.01;98967.34;5072769;28;20037;-75
2022/10/26 11:09:45;;;;;;;5.15;2.25;;;;;;;16.03;69.15;98968.00;5072797;28;20568;-74
2022/10/26 11:12:16;;;;;;;7.40;2.83;;;;;;;16.08;68.57;98967.88;5072834;28;20051;-74
2022/10/26 11:14:45;;;;;;;7.00;2.80;;;;;;;16.15;68.83;98973.75;5072512;28;20032;-75
2022/10/26 11:17:40;;;;;;;4.47;2.47;;;;;;;16.19;66.54;98965.63;5076547;28;20031;-76
2022/10/26 11:20:12;;;;;;;3.78;2.20;;;;;;;16.22;66.68;98963.03;5019206;28;20084;-75
2022/10/26 11:23:08;;;;;;;8.57;2.72;;;;;;;16.26;67.70;98968.75;5092789;28;20127;-75
2022/10/26 11:25:41;;;;;;;6.35;1.88;;;;;;;16.31;67.63;98970.53;5090545;28;20040;-76
2022/10/26 11:28:16;;;;;;;4.55;1.75;;;;;;;16.34;67.73;98965.19;5067897;28;20032;-75
2022/10/26 11:30:52;;;;;;;7.03;2.38;;;;;;;16.40;67.92;98965.84;5071398;28;20059;-76
2022/10/26 11:33:29;;;;;;;4.75;2.10;;;;;;;16.49;66.94;98969.44;5071915;28;20041;-75
2022/10/26 11:36:06;;;;;;;4.03;2.10;;;;;;;16.55;66.27;98964.56;5074312;28;20482;-76
2022/10/26 11:38:37;;;;;;;3.85;2.08;;;;;;;16.62;66.42;98964.09;5092421;28;20030;-76
2022/10/26 11:41:12;;;;;;;8.07;3.70;;;;;;;16.67;64.28;98966.69;5091399;28;20063;-78